createdAt,value
2023-03-10T00:03:39.559Z,85.50
2023-03-10T00:11:48.239Z,85.20
2023-03-10T00:19:53.579Z,85.30
2023-03-10T00:28:01.582Z,85.10
2023-03-10T00:36:10.106Z,85.50
2023-03-10T00:44:19.167Z,85.00
2023-03-10T00:52:24.743Z,85.00
2023-03-10T01:00:32.747Z,84.80
2023-03-10T01:08:38.284Z,85.00
2023-03-10T01:16:46.393Z,85.20
2023-03-10T01:24:53.145Z,85.20
2023-03-10T01:33:01.172Z,85.20
2023-03-10T01:41:07.445Z,86.80
2023-03-10T01:49:25.699Z,87.20
2023-03-10T01:57:36.590Z,86.90
2023-03-10T02:05:48.867Z,87.00
2023-03-10T02:13:55.191Z,86.40
2023-03-10T02:22:08.016Z,85.90
2023-03-10T02:30:20.557Z,85.20
2023-03-10T02:38:26.151Z,85.80
2023-03-10T02:46:34.687Z,85.50
2023-03-10T02:54:40.222Z,85.60
2023-03-10T03:02:48.308Z,86.00
2023-03-10T03:10:54.818Z,86.20
2023-03-10T03:19:03.016Z,86.40
2023-03-10T03:27:09.242Z,86.90
2023-03-10T03:35:20.362Z,86.50
2023-03-10T03:43:27.770Z,86.40
2023-03-10T03:51:40.723Z,86.30
2023-03-10T03:59:47.199Z,87.30
2023-03-10T04:07:55.325Z,88.20
2023-03-10T04:16:02.389Z,88.60
2023-03-10T04:24:16.234Z,88.40
2023-03-10T04:32:22.131Z,88.90
2023-03-10T04:40:30.315Z,89.50
2023-03-10T04:48:36.212Z,90.00
2023-03-10T04:56:45.380Z,90.20
2023-03-10T05:04:51.098Z,90.30
2023-03-10T05:12:59.625Z,90.00
2023-03-10T05:21:05.985Z,89.50
2023-03-10T05:29:14.329Z,88.80
2023-03-10T05:37:24.978Z,88.00
2023-03-10T05:45:33.954Z,87.00
2023-03-10T05:53:41.190Z,86.10
2023-03-10T06:01:53.349Z,87.00
2023-03-10T06:09:59.593Z,86.80
2023-03-10T06:18:07.850Z,85.80
2023-03-10T06:26:17.772Z,85.10
2023-03-10T06:34:25.836Z,83.90
2023-03-10T06:42:31.296Z,84.90
2023-03-10T06:50:42.961Z,84.20
2023-03-10T06:58:48.627Z,84.40
2023-03-10T07:06:56.699Z,83.90
2023-03-10T07:15:02.425Z,85.00
2023-03-10T07:23:12.504Z,84.90
2023-03-10T07:31:18.278Z,83.90
2023-03-10T07:39:26.417Z,83.50
2023-03-10T07:47:31.876Z,83.70
2023-03-10T07:55:44.015Z,81.10
2023-03-10T08:03:50.072Z,83.00
2023-03-10T08:12:00.514Z,83.70
2023-03-10T08:20:07.078Z,83.70
2023-03-10T08:28:15.192Z,83.70
2023-03-10T08:36:24.402Z,80.30
2023-03-10T08:44:32.331Z,79.50
2023-03-10T08:52:39.148Z,80.80
2023-03-10T09:00:47.746Z,79.10
2023-03-10T09:08:53.343Z,76.60
2023-03-10T09:17:01.541Z,76.20
2023-03-10T09:25:07.766Z,77.60
2023-03-10T09:33:19.026Z,74.70
2023-03-10T09:41:44.461Z,72.80
2023-03-10T09:50:05.864Z,67.20
2023-03-10T09:58:17.017Z,61.10
2023-03-10T10:06:29.841Z,52.60
2023-03-10T10:14:38.450Z,48.70
2023-03-10T10:22:49.339Z,43.40
2023-03-10T10:30:57.875Z,39.60
2023-03-10T10:39:28.260Z,38.20
2023-03-10T10:47:38.182Z,37.40
2023-03-10T10:55:48.020Z,36.70
2023-03-10T11:04:08.202Z,35.10
2023-03-10T11:12:22.252Z,34.20
2023-03-10T11:20:32.981Z,38.40
2023-03-10T11:28:53.391Z,45.30
2023-03-10T11:37:07.291Z,47.20
2023-03-10T11:45:29.422Z,48.40
2023-03-10T11:53:41.936Z,48.20
2023-03-10T12:01:54.224Z,50.50
2023-03-10T12:10:02.115Z,51.40
2023-03-10T12:18:11.287Z,51.50
2023-03-10T12:26:16.853Z,51.40
2023-03-10T12:34:28.129Z,53.10
2023-03-10T12:42:35.396Z,53.10
2023-03-10T12:50:52.875Z,53.10
2023-03-10T12:59:01.520Z,54.60
2023-03-10T13:07:19.064Z,54.10
2023-03-10T13:15:27.476Z,54.50
2023-03-10T13:23:38.711Z,55.30
2023-03-10T13:31:44.643Z,54.80
2023-03-10T13:39:52.801Z,54.70
2023-03-10T13:47:58.401Z,54.30
2023-03-10T13:56:17.482Z,55.40
2023-03-10T14:04:42.619Z,55.60
2023-03-10T14:13:15.928Z,55.30
2023-03-10T14:21:33.810Z,55.10
2023-03-10T14:29:44.282Z,55.30
2023-03-10T14:37:49.965Z,55.70
2023-03-10T14:46:00.394Z,54.20
2023-03-10T14:54:06.504Z,55.20
2023-03-10T15:02:22.171Z,55.20
2023-03-10T15:10:30.314Z,55.70
2023-03-10T15:18:38.211Z,57.00
2023-03-10T15:27:04.050Z,57.00
2023-03-10T15:35:16.474Z,56.90
2023-03-10T15:43:24.349Z,57.60
2023-03-10T15:51:32.836Z,58.80
2023-03-10T15:59:38.362Z,59.70
2023-03-10T16:07:46.554Z,59.80
2023-03-10T16:15:52.885Z,59.90
2023-03-10T16:24:06.401Z,60.00
2023-03-10T16:32:12.583Z,60.50
2023-03-10T16:40:20.987Z,61.20
2023-03-10T16:48:30.174Z,60.80
2023-03-10T16:56:39.547Z,60.30
2023-03-10T17:04:45.526Z,62.60
2023-03-10T17:12:53.533Z,65.30
2023-03-10T17:20:58.928Z,66.50
2023-03-10T17:29:07.533Z,64.90
2023-03-10T17:37:13.283Z,65.10
2023-03-10T17:45:21.296Z,65.90
2023-03-10T17:53:27.033Z,66.20
2023-03-10T18:01:37.717Z,68.30
2023-03-10T18:09:43.178Z,69.00
2023-03-10T18:17:52.426Z,69.80
2023-03-10T18:25:59.037Z,71.40
2023-03-10T18:34:10.366Z,75.00
2023-03-10T18:42:16.009Z,77.90
2023-03-10T18:50:24.136Z,80.80
2023-03-10T18:58:30.103Z,82.30
2023-03-10T19:06:38.118Z,82.80
2023-03-10T19:14:44.851Z,82.70
2023-03-10T19:22:54.192Z,83.80
2023-03-10T19:30:59.754Z,84.50
2023-03-10T19:47:33.933Z,86.60
2023-03-10T19:55:43.615Z,87.40
2023-03-10T20:03:49.357Z,88.40
2023-03-10T20:11:57.619Z,87.60
2023-03-10T20:20:07.901Z,87.60
2023-03-10T20:28:16.680Z,87.20
2023-03-10T20:36:22.191Z,86.60
2023-03-10T20:44:32.351Z,86.60
2023-03-10T20:52:38.300Z,86.60
2023-03-10T21:00:49.626Z,86.20
2023-03-10T21:08:55.161Z,85.70
2023-03-10T21:17:04.138Z,86.10
2023-03-10T21:25:12.769Z,85.80
2023-03-10T21:33:23.201Z,83.70
2023-03-10T21:41:30.574Z,81.40
2023-03-10T21:49:38.542Z,81.40
2023-03-10T21:57:43.970Z,79.20
2023-03-10T22:05:52.101Z,78.30
2023-03-10T22:13:58.261Z,79.10
2023-03-10T22:22:06.299Z,78.30
2023-03-10T22:30:14.147Z,77.00
2023-03-10T22:38:22.830Z,76.60
2023-03-10T22:46:28.390Z,75.90
2023-03-10T22:54:36.802Z,75.50
2023-03-10T23:02:42.214Z,75.30
2023-03-10T23:10:50.341Z,75.30
2023-03-10T23:18:58.388Z,75.20
2023-03-10T23:27:06.620Z,75.50
2023-03-10T23:35:15.230Z,75.40
2023-03-10T23:43:23.349Z,75.30
2023-03-10T23:51:29.243Z,75.30
2023-03-10T23:59:37.178Z,75.70
